createdAt,value
2018-12-10T00:01:22.857Z,1.00
2018-12-10T00:03:51.197Z,1.40
2018-12-10T00:06:19.409Z,1.40
2018-12-10T00:08:47.655Z,1.40
2018-12-10T00:11:15.872Z,1.50
2018-12-10T00:13:44.116Z,1.37
2018-12-10T00:16:12.345Z,2.23
2018-12-10T00:18:40.581Z,1.00
2018-12-10T00:21:08.893Z,1.30
2018-12-10T00:23:37.123Z,1.40
2018-12-10T00:26:05.439Z,1.23
2018-12-10T00:28:33.753Z,1.23
2018-12-10T00:31:02.001Z,1.23
2018-12-10T00:33:30.228Z,1.20
2018-12-10T00:35:58.458Z,1.10
2018-12-10T00:38:26.684Z,1.23
2018-12-10T00:40:54.909Z,1.30
2018-12-10T00:43:23.140Z,1.30
2018-12-10T00:45:51.376Z,1.20
2018-12-10T00:48:19.701Z,1.20
2018-12-10T00:50:47.924Z,1.40
2018-12-10T00:53:16.159Z,2.47
2018-12-10T00:55:44.375Z,1.40
2018-12-10T00:58:12.616Z,1.50
2018-12-10T01:00:40.949Z,1.10
2018-12-10T01:03:09.178Z,1.10
2018-12-10T01:05:37.410Z,1.10
2018-12-10T01:08:05.718Z,1.43
2018-12-10T01:10:33.940Z,0.93
2018-12-10T01:13:02.163Z,1.30
2018-12-10T01:15:30.397Z,1.10
2018-12-10T01:17:58.626Z,1.23
2018-12-10T01:20:26.857Z,0.90
2018-12-10T01:22:55.104Z,1.10
2018-12-10T01:25:23.332Z,1.17
2018-12-10T01:27:51.635Z,1.20
2018-12-10T01:30:19.875Z,2.80
2018-12-10T01:32:48.212Z,1.27
2018-12-10T01:35:16.436Z,1.40
2018-12-10T01:37:44.743Z,1.00
2018-12-10T01:40:13.059Z,1.10
2018-12-10T01:42:41.272Z,1.30
2018-12-10T01:45:09.583Z,1.20
2018-12-10T01:47:37.808Z,1.40
2018-12-10T01:50:06.353Z,1.50
2018-12-10T01:52:34.579Z,1.40
2018-12-10T01:55:02.891Z,1.10
2018-12-10T01:57:31.117Z,1.50
2018-12-10T01:59:59.357Z,1.00
2018-12-10T02:02:27.575Z,1.50
2018-12-10T02:04:55.812Z,1.33
2018-12-10T02:07:24.039Z,1.30
2018-12-10T02:09:52.265Z,1.40
2018-12-10T02:12:20.492Z,1.40
2018-12-10T02:14:48.737Z,1.37
2018-12-10T02:17:16.969Z,1.43
2018-12-10T02:19:45.213Z,1.27
2018-12-10T02:22:13.428Z,1.17
2018-12-10T02:24:41.744Z,1.30
2018-12-10T02:27:09.965Z,1.40
2018-12-10T02:29:38.195Z,1.23
2018-12-10T02:32:06.445Z,1.30
2018-12-10T02:34:34.675Z,1.20
2018-12-10T02:37:02.893Z,1.10
2018-12-10T02:39:31.131Z,1.00
2018-12-10T02:41:59.358Z,1.30
2018-12-10T02:44:27.681Z,1.13
2018-12-10T02:46:55.914Z,1.20
2018-12-10T02:49:24.135Z,1.43
2018-12-10T02:51:52.594Z,1.10
2018-12-10T02:54:27.197Z,1.40
2018-12-10T02:56:55.414Z,1.50
2018-12-10T02:59:23.657Z,1.50
2018-12-10T03:01:51.878Z,1.37
2018-12-10T03:04:20.113Z,1.50
2018-12-10T03:06:48.353Z,1.20
2018-12-10T03:09:16.584Z,1.27
2018-12-10T03:11:44.814Z,1.47
2018-12-10T03:14:13.045Z,1.30
2018-12-10T03:16:41.356Z,1.30
2018-12-10T03:19:09.589Z,1.47
2018-12-10T03:21:37.902Z,1.40
2018-12-10T03:24:06.129Z,1.50
2018-12-10T03:26:34.867Z,1.17
2018-12-10T03:29:03.088Z,1.23
2018-12-10T03:31:31.304Z,1.63
2018-12-10T03:33:59.618Z,1.97
2018-12-10T03:36:27.837Z,1.40
2018-12-10T03:38:56.058Z,1.50
2018-12-10T03:41:24.373Z,1.70
2018-12-10T03:43:52.577Z,1.30
2018-12-10T03:46:20.797Z,1.60
2018-12-10T03:48:49.009Z,1.70
2018-12-10T03:51:17.245Z,1.70
2018-12-10T03:53:45.468Z,1.40
2018-12-10T03:56:13.728Z,1.43
2018-12-10T03:58:42.138Z,1.60
2018-12-10T04:01:10.351Z,1.57
2018-12-10T04:03:38.566Z,1.73
2018-12-10T04:06:06.894Z,1.87
2018-12-10T04:08:35.107Z,1.80
2018-12-10T04:11:03.355Z,1.70
2018-12-10T04:13:31.553Z,1.73
2018-12-10T04:15:59.781Z,2.13
2018-12-10T04:18:28.011Z,2.10
2018-12-10T04:20:56.242Z,1.90
2018-12-10T04:23:24.444Z,1.90
2018-12-10T04:25:52.658Z,2.63
2018-12-10T04:28:20.863Z,2.30
2018-12-10T04:30:49.127Z,2.33
2018-12-10T04:33:17.495Z,2.07
2018-12-10T04:35:45.737Z,2.50
2018-12-10T04:38:14.065Z,2.30
2018-12-10T04:40:42.374Z,2.17
2018-12-10T04:43:10.581Z,2.67
2018-12-10T04:45:38.816Z,2.40
2018-12-10T04:48:07.029Z,2.80
2018-12-10T04:50:35.244Z,2.50
2018-12-10T04:53:03.456Z,2.70
2018-12-10T04:55:31.704Z,2.50
2018-12-10T04:57:59.936Z,3.33
2018-12-10T05:00:28.184Z,2.57
2018-12-10T05:02:56.409Z,2.80
2018-12-10T05:05:24.716Z,2.90
2018-12-10T05:07:52.923Z,2.37
2018-12-10T05:10:21.858Z,3.40
2018-12-10T05:12:50.092Z,3.43
2018-12-10T05:15:18.396Z,3.33
2018-12-10T05:17:46.640Z,4.40
2018-12-10T05:20:14.835Z,3.80
2018-12-10T05:22:43.059Z,3.93
2018-12-10T05:25:11.267Z,3.60
2018-12-10T05:27:39.478Z,3.60
2018-12-10T05:30:07.849Z,3.90
2018-12-10T05:32:36.080Z,4.03
2018-12-10T05:35:04.806Z,3.70
2018-12-10T05:37:33.225Z,3.90
2018-12-10T05:40:01.431Z,3.10
2018-12-10T05:42:29.659Z,2.83
2018-12-10T05:44:57.899Z,3.00
2018-12-10T05:47:26.115Z,2.27
2018-12-10T05:49:54.332Z,2.73
2018-12-10T05:52:22.555Z,3.57
2018-12-10T05:54:50.801Z,1.77
2018-12-10T05:57:19.057Z,2.30
2018-12-10T05:59:47.385Z,2.13
2018-12-10T06:02:15.619Z,1.80
2018-12-10T06:04:44.252Z,2.03
2018-12-10T06:07:12.485Z,1.73
2018-12-10T06:09:40.770Z,2.13
2018-12-10T06:12:09.003Z,2.30
2018-12-10T06:14:37.346Z,1.90
2018-12-10T06:17:05.662Z,2.10
2018-12-10T06:19:33.885Z,1.80
2018-12-10T06:22:02.180Z,2.30
2018-12-10T06:24:30.398Z,2.60
2018-12-10T06:26:58.764Z,2.20
2018-12-10T06:29:26.998Z,2.00
2018-12-10T06:31:55.314Z,2.20
2018-12-10T06:34:23.665Z,2.30
2018-12-10T06:36:51.933Z,3.00
2018-12-10T06:39:20.149Z,3.00
2018-12-10T06:41:48.377Z,3.00
2018-12-10T06:44:16.721Z,3.07
2018-12-10T06:46:44.952Z,3.40
2018-12-10T06:49:13.196Z,3.00
2018-12-10T06:51:41.503Z,3.50
2018-12-10T06:54:09.748Z,3.90
2018-12-10T06:56:37.948Z,3.70
2018-12-10T06:59:06.364Z,3.60
2018-12-10T07:01:34.593Z,2.20
2018-12-10T07:04:02.818Z,2.30
2018-12-10T07:06:31.178Z,2.20
2018-12-10T07:08:59.441Z,2.60
2018-12-10T07:11:27.680Z,2.20
2018-12-10T07:13:55.925Z,1.80
2018-12-10T07:16:24.136Z,1.93
2018-12-10T07:18:52.399Z,2.43
2018-12-10T07:21:20.822Z,2.90
2018-12-10T07:23:49.025Z,2.70
2018-12-10T07:26:17.349Z,3.03
2018-12-10T07:28:45.604Z,2.80
2018-12-10T07:31:13.840Z,3.20
2018-12-10T07:33:42.081Z,3.40
2018-12-10T07:36:10.400Z,3.40
2018-12-10T07:38:38.613Z,4.10
2018-12-10T07:41:06.924Z,2.60
2018-12-10T07:43:35.160Z,2.50
2018-12-10T07:46:03.473Z,2.83
2018-12-10T07:48:31.709Z,3.37
2018-12-10T07:50:59.912Z,3.17
2018-12-10T07:53:28.223Z,3.20
2018-12-10T07:55:56.524Z,2.83
2018-12-10T07:58:24.749Z,3.07
2018-12-10T08:00:53.065Z,3.00
2018-12-10T08:03:21.297Z,2.83
2018-12-10T08:05:49.574Z,2.77
2018-12-10T08:08:17.795Z,2.87
2018-12-10T08:10:46.011Z,3.00
2018-12-10T08:13:14.281Z,3.03
2018-12-10T08:15:42.552Z,2.70
2018-12-10T08:18:10.863Z,2.00
2018-12-10T08:20:39.088Z,2.40
2018-12-10T08:23:07.292Z,4.07
2018-12-10T08:25:35.564Z,2.40
2018-12-10T08:28:03.997Z,2.47
2018-12-10T08:30:32.439Z,2.60
2018-12-10T08:33:00.644Z,3.07
2018-12-10T08:35:28.952Z,3.00
2018-12-10T08:37:57.180Z,4.60
2018-12-10T08:40:25.442Z,3.10
2018-12-10T08:42:53.833Z,3.03
2018-12-10T08:45:22.128Z,2.60
2018-12-10T08:47:50.417Z,4.30
2018-12-10T08:50:18.724Z,2.87
2018-12-10T08:52:47.101Z,3.27
2018-12-10T08:55:15.444Z,2.87
2018-12-10T08:57:43.650Z,3.20
2018-12-10T09:00:11.877Z,2.60
2018-12-10T09:02:40.172Z,2.70
2018-12-10T09:05:08.579Z,2.90
2018-12-10T09:07:36.830Z,2.57
2018-12-10T09:10:06.390Z,2.63
2018-12-10T09:12:34.620Z,2.10
2018-12-10T09:15:03.143Z,2.77
2018-12-10T09:17:31.443Z,2.43
2018-12-10T09:19:59.659Z,2.97
2018-12-10T09:22:27.869Z,2.50
2018-12-10T09:24:56.125Z,3.40
2018-12-10T09:27:24.334Z,2.60
2018-12-10T09:29:52.575Z,2.80
2018-12-10T09:32:20.809Z,3.40
2018-12-10T09:34:49.043Z,2.40
2018-12-10T09:37:17.283Z,2.17
2018-12-10T09:39:45.590Z,2.03
2018-12-10T09:42:13.883Z,2.30
2018-12-10T09:44:42.104Z,2.13
2018-12-10T09:47:10.404Z,2.37
2018-12-10T09:49:38.619Z,2.40
2018-12-10T09:52:06.819Z,2.60
2018-12-10T09:54:35.033Z,2.57
2018-12-10T09:57:03.235Z,2.20
2018-12-10T09:59:31.459Z,2.27
2018-12-10T10:01:59.765Z,2.63
2018-12-10T10:04:27.990Z,2.20
2018-12-10T10:06:56.343Z,2.20
2018-12-10T10:09:24.652Z,2.37
2018-12-10T10:11:52.864Z,2.00
2018-12-10T10:14:21.087Z,2.47
2018-12-10T10:16:49.295Z,2.60
2018-12-10T10:19:17.519Z,2.83
2018-12-10T10:21:45.969Z,3.40
2018-12-10T10:24:14.240Z,3.70
2018-12-10T10:26:42.447Z,3.80
2018-12-10T10:29:10.704Z,3.17
2018-12-10T10:31:38.918Z,3.40
2018-12-10T10:34:07.236Z,3.93
2018-12-10T10:36:35.620Z,2.90
2018-12-10T10:39:05.345Z,3.50
2018-12-10T10:41:33.563Z,3.50
2018-12-10T10:44:02.109Z,3.03
2018-12-10T10:46:30.439Z,2.60
2018-12-10T10:48:58.648Z,3.07
2018-12-10T10:51:27.012Z,2.00
2018-12-10T10:53:55.268Z,2.80
2018-12-10T10:56:23.487Z,1.93
2018-12-10T10:58:51.788Z,2.10
2018-12-10T11:01:26.176Z,2.17
2018-12-10T11:03:54.479Z,2.07
2018-12-10T11:06:22.700Z,2.10
2018-12-10T11:08:50.920Z,1.97
2018-12-10T11:11:19.227Z,1.97
2018-12-10T11:13:47.440Z,1.93
2018-12-10T11:16:15.656Z,2.00
2018-12-10T11:18:43.869Z,2.00
2018-12-10T11:21:12.092Z,2.00
2018-12-10T11:23:40.575Z,1.80
2018-12-10T11:26:08.888Z,1.80
2018-12-10T11:28:37.095Z,2.30
2018-12-10T11:31:05.380Z,2.57
2018-12-10T11:33:33.593Z,1.90
2018-12-10T11:36:01.887Z,2.27
2018-12-10T11:38:30.098Z,2.20
2018-12-10T11:40:58.504Z,2.10
2018-12-10T11:43:26.796Z,2.60
2018-12-10T11:45:55.020Z,2.30
2018-12-10T11:48:23.228Z,1.80
2018-12-10T11:50:51.445Z,2.57
2018-12-10T11:53:19.748Z,2.10
2018-12-10T11:55:47.971Z,2.47
2018-12-10T11:58:16.276Z,1.87
2018-12-10T12:00:44.595Z,1.83
2018-12-10T12:03:12.895Z,1.93
2018-12-10T12:05:42.125Z,2.33
2018-12-10T12:08:10.512Z,1.93
2018-12-10T12:10:38.749Z,2.50
2018-12-10T12:13:06.971Z,2.30
2018-12-10T12:15:35.183Z,2.40
2018-12-10T12:18:03.487Z,2.60
2018-12-10T12:20:31.719Z,2.10
2018-12-10T12:22:59.931Z,2.27
2018-12-10T12:25:28.144Z,1.93
2018-12-10T12:27:56.358Z,1.80
2018-12-10T12:30:24.564Z,2.17
2018-12-10T12:32:52.799Z,2.03
2018-12-10T12:35:21.025Z,1.90
2018-12-10T12:37:49.244Z,1.90
2018-12-10T12:40:17.589Z,1.90
2018-12-10T12:42:45.795Z,2.33
2018-12-10T12:45:14.021Z,2.40
2018-12-10T12:47:42.296Z,3.23
2018-12-10T12:50:10.512Z,2.67
2018-12-10T12:52:38.726Z,3.00
2018-12-10T12:55:07.041Z,2.57
2018-12-10T12:57:35.272Z,2.60
2018-12-10T13:00:04.313Z,2.87
2018-12-10T13:02:32.533Z,2.63
2018-12-10T13:05:00.756Z,2.80
2018-12-10T13:07:29.168Z,3.03
2018-12-10T13:09:57.467Z,3.20
2018-12-10T13:12:25.753Z,2.97
2018-12-10T13:14:54.094Z,2.67
2018-12-10T13:17:22.607Z,2.73
2018-12-10T13:19:50.879Z,3.40
2018-12-10T13:22:19.100Z,3.60
2018-12-10T13:24:47.320Z,2.97
2018-12-10T13:27:15.614Z,2.60
2018-12-10T13:29:44.068Z,2.57
2018-12-10T13:32:12.355Z,2.17
2018-12-10T13:34:40.592Z,2.67
2018-12-10T13:37:08.808Z,2.53
2018-12-10T13:39:36.992Z,2.43
2018-12-10T13:42:05.283Z,2.87
2018-12-10T13:44:33.504Z,2.97
2018-12-10T13:47:02.192Z,2.40
2018-12-10T13:49:30.427Z,2.77
2018-12-10T13:51:58.629Z,2.80
2018-12-10T13:54:26.909Z,2.33
2018-12-10T13:56:55.116Z,2.60
2018-12-10T13:59:23.389Z,2.50
2018-12-10T14:01:51.673Z,2.03
2018-12-10T14:04:25.844Z,2.90
2018-12-10T14:06:54.144Z,2.60
2018-12-10T14:09:22.509Z,2.70
2018-12-10T14:11:50.706Z,2.50
2018-12-10T14:14:18.898Z,2.10
2018-12-10T14:16:47.168Z,2.40
2018-12-10T14:19:15.388Z,2.17
2018-12-10T14:21:43.671Z,2.07
2018-12-10T14:24:11.952Z,2.30
2018-12-10T14:26:40.245Z,2.17
2018-12-10T14:29:08.603Z,2.00
2018-12-10T14:31:36.864Z,2.00
2018-12-10T14:34:36.796Z,1.97
2018-12-10T14:37:05.024Z,1.80
2018-12-10T14:42:18.141Z,2.00
2018-12-10T14:44:46.395Z,1.93
2018-12-10T14:47:14.704Z,1.90
2018-12-10T14:49:42.914Z,2.20
2018-12-10T14:52:11.152Z,1.90
2018-12-10T14:54:39.351Z,2.10
2018-12-10T14:57:07.659Z,2.00
2018-12-10T14:59:35.859Z,2.13
2018-12-10T15:02:04.187Z,2.00
2018-12-10T15:04:32.389Z,2.17
2018-12-10T15:07:00.629Z,2.00
2018-12-10T15:09:28.832Z,2.07
2018-12-10T15:11:57.057Z,2.03
2018-12-10T15:14:25.275Z,1.80
2018-12-10T15:16:53.552Z,1.70
2018-12-10T15:19:21.931Z,2.30
2018-12-10T15:21:50.164Z,3.73
2018-12-10T15:24:18.381Z,1.83
2018-12-10T15:26:46.604Z,1.60
2018-12-10T15:29:14.830Z,1.90
2018-12-10T15:31:43.056Z,1.60
2018-12-10T15:34:11.280Z,1.80
2018-12-10T15:36:39.560Z,1.50
2018-12-10T15:39:08.371Z,1.50
2018-12-10T15:41:36.708Z,1.50
2018-12-10T15:44:04.924Z,1.87
2018-12-10T15:46:33.400Z,1.40
2018-12-10T15:49:01.669Z,1.60
2018-12-10T15:51:29.863Z,1.57
2018-12-10T15:53:58.091Z,1.60
2018-12-10T15:56:27.009Z,1.43
2018-12-10T15:58:55.212Z,1.50
2018-12-10T16:01:23.535Z,1.90
2018-12-10T16:03:51.816Z,1.40
2018-12-10T16:06:20.016Z,1.83
2018-12-10T16:08:48.233Z,2.00
2018-12-10T16:11:16.420Z,1.60
2018-12-10T16:13:44.624Z,1.90
2018-12-10T16:16:12.829Z,1.80
2018-12-10T16:18:41.026Z,1.80
2018-12-10T16:21:09.219Z,1.63
2018-12-10T16:23:37.453Z,1.97
2018-12-10T16:26:05.656Z,1.90
2018-12-10T16:28:33.864Z,2.10
2018-12-10T16:31:02.214Z,1.87
2018-12-10T16:33:31.861Z,1.83
2018-12-10T16:36:00.165Z,2.00
2018-12-10T16:38:28.499Z,1.53
2018-12-10T16:40:56.705Z,1.40
2018-12-10T16:43:24.940Z,1.70
2018-12-10T16:45:53.240Z,1.93
2018-12-10T16:48:21.479Z,1.90
2018-12-10T16:50:49.698Z,1.70
2018-12-10T16:53:17.912Z,1.30
2018-12-10T16:55:46.148Z,1.60
2018-12-10T16:58:14.355Z,1.50
2018-12-10T17:00:42.564Z,1.80
2018-12-10T17:03:10.789Z,1.40
2018-12-10T17:05:39.024Z,1.73
2018-12-10T17:08:07.240Z,1.10
2018-12-10T17:10:35.456Z,1.70
2018-12-10T17:13:03.758Z,1.40
2018-12-10T17:15:32.003Z,1.77
2018-12-10T17:18:00.340Z,1.70
2018-12-10T17:20:28.887Z,1.70
2018-12-10T17:22:57.191Z,1.97
2018-12-10T17:25:25.419Z,3.40
2018-12-10T17:27:53.632Z,3.80
2018-12-10T17:30:22.158Z,3.40
2018-12-10T17:32:51.552Z,3.30
2018-12-10T17:35:19.825Z,2.70
2018-12-10T17:37:48.133Z,2.23
2018-12-10T17:40:16.370Z,1.77
2018-12-10T17:42:44.640Z,2.03
2018-12-10T17:45:13.096Z,1.83
2018-12-10T17:47:41.379Z,2.70
2018-12-10T17:50:11.336Z,3.07
2018-12-10T17:52:39.554Z,3.10
2018-12-10T17:55:07.962Z,3.70
2018-12-10T17:57:36.201Z,3.90
2018-12-10T18:00:06.292Z,3.57
2018-12-10T18:02:34.615Z,3.50
2018-12-10T18:05:02.952Z,3.13
2018-12-10T18:07:31.169Z,2.40
2018-12-10T18:09:59.430Z,2.20
2018-12-10T18:12:27.679Z,2.30
2018-12-10T18:14:55.908Z,2.30
2018-12-10T18:17:24.119Z,1.90
2018-12-10T18:19:52.346Z,2.37
2018-12-10T18:22:20.552Z,2.00
2018-12-10T18:24:48.775Z,1.70
2018-12-10T18:27:17.001Z,1.77
2018-12-10T18:29:45.220Z,1.87
2018-12-10T18:32:13.436Z,2.20
2018-12-10T18:34:41.619Z,2.30
2018-12-10T18:37:09.835Z,2.10
2018-12-10T18:39:38.032Z,2.53
2018-12-10T18:42:06.328Z,2.50
2018-12-10T18:44:34.520Z,1.80
2018-12-10T18:47:02.731Z,1.90
2018-12-10T18:49:31.029Z,1.57
2018-12-10T18:51:59.231Z,2.53
2018-12-10T18:54:27.460Z,3.20
2018-12-10T18:56:55.676Z,3.77
2018-12-10T18:59:23.873Z,3.50
2018-12-10T19:01:52.083Z,3.30
2018-12-10T19:04:20.377Z,2.90
2018-12-10T19:06:48.634Z,2.30
2018-12-10T19:09:17.019Z,1.97
2018-12-10T19:11:45.264Z,1.83
2018-12-10T19:14:13.447Z,2.20
2018-12-10T19:16:41.678Z,3.83
2018-12-10T19:19:09.881Z,5.53
2018-12-10T19:21:38.174Z,3.43
2018-12-10T19:24:06.404Z,2.03
2018-12-10T19:26:34.693Z,2.20
2018-12-10T19:29:03.064Z,2.10
2018-12-10T19:31:31.292Z,1.73
2018-12-10T19:34:03.599Z,2.87
2018-12-10T19:36:29.765Z,2.77
2018-12-10T19:38:57.962Z,2.30
2018-12-10T19:41:26.195Z,2.80
2018-12-10T19:43:54.411Z,2.23
2018-12-10T19:46:22.655Z,3.40
2018-12-10T19:48:50.864Z,3.00
2018-12-10T19:51:19.092Z,2.80
2018-12-10T19:53:47.306Z,2.10
2018-12-10T19:56:15.704Z,2.30
2018-12-10T19:58:43.927Z,2.53
2018-12-10T20:01:13.506Z,1.73
2018-12-10T20:03:42.139Z,1.93
2018-12-10T20:06:18.308Z,2.40
2018-12-10T20:08:46.525Z,3.50
2018-12-10T20:11:14.860Z,3.03
2018-12-10T20:13:43.387Z,3.03
2018-12-10T20:16:11.869Z,3.67
2018-12-10T20:18:40.103Z,3.07
2018-12-10T20:21:08.336Z,2.80
2018-12-10T20:23:36.540Z,2.57
2018-12-10T20:26:04.968Z,2.40
2018-12-10T20:28:33.199Z,2.30
2018-12-10T20:31:01.511Z,3.30
2018-12-10T20:33:29.830Z,2.40
2018-12-10T20:35:58.445Z,2.93
2018-12-10T20:38:26.743Z,2.50
2018-12-10T20:40:54.971Z,2.70
2018-12-10T20:43:23.152Z,2.50
2018-12-10T20:45:51.449Z,2.07
2018-12-10T20:48:19.647Z,2.40
2018-12-10T20:50:49.131Z,2.80
2018-12-10T20:53:18.160Z,2.80
2018-12-10T20:55:46.365Z,2.50
2018-12-10T20:58:14.748Z,2.83
2018-12-10T21:00:42.945Z,4.07
2018-12-10T21:03:11.232Z,3.43
2018-12-10T21:05:43.674Z,2.77
2018-12-10T21:08:11.952Z,3.10
2018-12-10T21:10:40.227Z,3.67
2018-12-10T21:13:08.457Z,3.80
2018-12-10T21:15:36.647Z,3.33
2018-12-10T21:18:04.856Z,2.90
2018-12-10T21:20:33.075Z,3.10
2018-12-10T21:23:01.264Z,3.17
2018-12-10T21:25:29.473Z,3.20
2018-12-10T21:27:57.685Z,3.40
2018-12-10T21:30:25.891Z,3.53
2018-12-10T21:32:54.114Z,3.10
2018-12-10T21:35:22.396Z,3.40
2018-12-10T21:37:50.679Z,3.40
2018-12-10T21:40:18.883Z,3.10
2018-12-10T21:42:47.091Z,3.60
2018-12-10T21:45:15.305Z,3.67
2018-12-10T21:47:43.520Z,4.83
2018-12-10T21:50:11.710Z,4.73
2018-12-10T21:52:39.924Z,5.13
2018-12-10T21:55:08.349Z,4.30
2018-12-10T21:57:37.074Z,4.20
2018-12-10T22:00:05.996Z,3.60
2018-12-10T22:02:34.261Z,2.60
2018-12-10T22:05:13.377Z,2.57
2018-12-10T22:07:41.759Z,2.53
2018-12-10T22:10:10.045Z,2.20
2018-12-10T22:12:38.260Z,2.77
2018-12-10T22:15:06.545Z,2.40
2018-12-10T22:17:34.751Z,2.17
2018-12-10T22:20:22.554Z,2.20
2018-12-10T22:22:50.992Z,3.70
2018-12-10T22:25:19.192Z,2.60
2018-12-10T22:27:47.405Z,1.97
2018-12-10T22:30:15.705Z,2.00
2018-12-10T22:32:43.928Z,2.30
2018-12-10T22:35:12.138Z,2.20
2018-12-10T22:37:40.332Z,2.37
2018-12-10T22:40:08.741Z,1.97
2018-12-10T22:42:36.944Z,2.33
2018-12-10T22:45:06.026Z,2.83
2018-12-10T22:47:34.324Z,2.33
2018-12-10T22:50:02.609Z,2.93
2018-12-10T22:52:30.810Z,2.37
2018-12-10T22:54:59.002Z,2.53
2018-12-10T22:57:27.204Z,2.43
2018-12-10T22:59:55.410Z,2.50
2018-12-10T23:02:23.604Z,2.60
2018-12-10T23:04:51.831Z,2.83
2018-12-10T23:07:20.196Z,3.03
2018-12-10T23:09:48.399Z,2.67
2018-12-10T23:12:16.602Z,2.80
2018-12-10T23:14:44.800Z,3.30
2018-12-10T23:17:13.007Z,2.67
2018-12-10T23:19:41.220Z,2.57
2018-12-10T23:22:09.520Z,2.60
2018-12-10T23:24:37.763Z,2.93
2018-12-10T23:27:06.063Z,2.70
2018-12-10T23:29:34.252Z,2.63
2018-12-10T23:32:02.477Z,3.63
2018-12-10T23:34:30.692Z,3.20
2018-12-10T23:36:58.917Z,2.73
2018-12-10T23:39:27.124Z,2.80
2018-12-10T23:41:55.348Z,2.57
2018-12-10T23:44:28.968Z,2.63
2018-12-10T23:46:57.272Z,3.20
2018-12-10T23:49:25.521Z,2.47
2018-12-10T23:51:53.755Z,2.50
2018-12-10T23:54:22.066Z,3.17
2018-12-10T23:56:50.286Z,2.77
2018-12-10T23:59:18.504Z,2.90
